sensor_id;sensor_type;location;lat;lon;timestamp;pressure;altitude;pressure_sealevel;temperature;humidity
56270;BME280;42176;43.240;27.880;2023-03-22T00:00:29;100084.66;;;6.22;100.00
56270;BME280;42176;43.240;27.880;2023-03-22T00:02:55;100095.97;;;6.38;100.00
56270;BME280;42176;43.240;27.880;2023-03-22T00:05:21;100089.69;;;6.60;100.00
56270;BME280;42176;43.240;27.880;2023-03-22T00:07:46;100101.84;;;6.82;100.00
56270;BME280;42176;43.240;27.880;2023-03-22T00:10:15;100098.38;;;6.74;100.00
56270;BME280;42176;43.240;27.880;2023-03-22T00:12:41;100083.66;;;6.42;100.00
56270;BME280;42176;43.240;27.880;2023-03-22T00:15:07;100084.44;;;6.57;100.00
56270;BME280;42176;43.240;27.880;2023-03-22T00:17:33;100093.06;;;6.79;100.00
56270;BME280;42176;43.240;27.880;2023-03-22T00:20:01;100103.47;;;6.99;100.00
56270;BME280;42176;43.240;27.880;2023-03-22T00:22:33;100104.38;;;6.98;100.00
56270;BME280;42176;43.240;27.880;2023-03-22T00:24:58;100072.09;;;6.65;100.00
56270;BME280;42176;43.240;27.880;2023-03-22T00:27:24;100077.19;;;6.86;100.00
56270;BME280;42176;43.240;27.880;2023-03-22T00:29:52;100083.94;;;7.25;100.00
56270;BME280;42176;43.240;27.880;2023-03-22T00:32:18;100065.13;;;6.54;100.00
56270;BME280;42176;43.240;27.880;2023-03-22T00:34:43;100058.16;;;6.50;100.00
56270;BME280;42176;43.240;27.880;2023-03-22T00:37:09;100073.84;;;6.69;100.00
56270;BME280;42176;43.240;27.880;2023-03-22T00:39:35;100084.22;;;6.88;100.00
56270;BME280;42176;43.240;27.880;2023-03-22T00:42:02;100091.09;;;7.07;100.00
56270;BME280;42176;43.240;27.880;2023-03-22T00:44:28;100023.25;;;6.14;100.00
56270;BME280;42176;43.240;27.880;2023-03-22T00:46:53;100063.34;;;6.60;100.00
56270;BME280;42176;43.240;27.880;2023-03-22T00:49:19;100057.97;;;6.78;100.00
56270;BME280;42176;43.240;27.880;2023-03-22T00:51:44;100057.81;;;6.97;100.00
56270;BME280;42176;43.240;27.880;2023-03-22T00:54:09;100064.59;;;7.26;100.00
56270;BME280;42176;43.240;27.880;2023-03-22T00:56:36;100040.63;;;6.46;100.00
56270;BME280;42176;43.240;27.880;2023-03-22T00:59:03;100051.03;;;6.65;100.00
56270;BME280;42176;43.240;27.880;2023-03-22T01:01:29;100043.94;;;6.73;100.00
56270;BME280;42176;43.240;27.880;2023-03-22T01:03:54;100050.91;;;6.80;100.00
56270;BME280;42176;43.240;27.880;2023-03-22T01:06:20;100049.16;;;6.82;100.00
56270;BME280;42176;43.240;27.880;2023-03-22T01:08:45;100053.66;;;6.68;100.00
56270;BME280;42176;43.240;27.880;2023-03-22T01:11:11;100034.44;;;6.49;100.00
56270;BME280;42176;43.240;27.880;2023-03-22T01:13:37;100043.94;;;6.70;100.00
56270;BME280;42176;43.240;27.880;2023-03-22T01:16:05;100053.34;;;7.02;100.00
56270;BME280;42176;43.240;27.880;2023-03-22T01:18:31;100033.72;;;6.27;100.00
56270;BME280;42176;43.240;27.880;2023-03-22T01:20:58;100030.91;;;6.53;100.00
56270;BME280;42176;43.240;27.880;2023-03-22T01:23:23;100040.44;;;6.71;100.00
56270;BME280;42176;43.240;27.880;2023-03-22T01:25:49;100049.78;;;7.12;100.00
56270;BME280;42176;43.240;27.880;2023-03-22T01:28:14;100033.72;;;6.27;100.00
56270;BME280;42176;43.240;27.880;2023-03-22T01:30:40;100024.78;;;6.52;100.00
56270;BME280;42176;43.240;27.880;2023-03-22T01:33:06;100042.19;;;6.72;100.00
56270;BME280;42176;43.240;27.880;2023-03-22T01:35:32;100040.28;;;6.90;100.00
56270;BME280;42176;43.240;27.880;2023-03-22T01:37:58;100032.31;;;6.99;100.00
56270;BME280;42176;43.240;27.880;2023-03-22T01:40:25;100033.97;;;7.12;100.00
56270;BME280;42176;43.240;27.880;2023-03-22T01:42:52;100039.84;;;7.36;100.00
56270;BME280;42176;43.240;27.880;2023-03-22T01:47:58;100008.19;;;6.39;100.00
56270;BME280;42176;43.240;27.880;2023-03-22T01:50:25;100001.97;;;6.51;100.00
56270;BME280;42176;43.240;27.880;2023-03-22T01:52:52;100009.72;;;6.72;100.00
56270;BME280;42176;43.240;27.880;2023-03-22T01:55:20;100008.75;;;6.83;100.00
56270;BME280;42176;43.240;27.880;2023-03-22T01:57:47;100026.03;;;7.15;100.00
56270;BME280;42176;43.240;27.880;2023-03-22T02:00:14;100023.09;;;6.39;100.00
56270;BME280;42176;43.240;27.880;2023-03-22T02:02:45;100020.34;;;6.59;100.00
56270;BME280;42176;43.240;27.880;2023-03-22T02:05:12;99990.56;;;6.51;100.00
56270;BME280;42176;43.240;27.880;2023-03-22T02:07:39;100038.44;;;7.01;100.00
56270;BME280;42176;43.240;27.880;2023-03-22T02:10:14;100033.75;;;6.22;100.00
56270;BME280;42176;43.240;27.880;2023-03-22T02:15:34;100051.03;;;6.63;100.00
56270;BME280;42176;43.240;27.880;2023-03-22T02:24:08;100061.56;;;6.65;100.00
56270;BME280;42176;43.240;27.880;2023-03-22T02:29:38;100063.53;;;6.29;100.00
56270;BME280;42176;43.240;27.880;2023-03-22T02:32:13;100065.19;;;6.51;100.00
56270;BME280;42176;43.240;27.880;2023-03-22T02:40:33;100078.34;;;6.50;100.00
56270;BME280;42176;43.240;27.880;2023-03-22T02:46:01;100063.69;;;5.99;100.00
56270;BME280;42176;43.240;27.880;2023-03-22T02:48:36;100060.06;;;6.23;100.00
56270;BME280;42176;43.240;27.880;2023-03-22T02:51:09;100075.72;;;6.48;100.00
56270;BME280;42176;43.240;27.880;2023-03-22T02:53:43;100091.22;;;6.92;100.00
56270;BME280;42176;43.240;27.880;2023-03-22T02:56:24;100081.16;;;6.20;100.00
56270;BME280;42176;43.240;27.880;2023-03-22T02:58:55;100074.88;;;6.42;100.00
56270;BME280;42176;43.240;27.880;2023-03-22T03:01:28;100090.59;;;6.57;100.00
56270;BME280;42176;43.240;27.880;2023-03-22T03:03:57;100086.94;;;6.75;100.00
56270;BME280;42176;43.240;27.880;2023-03-22T03:06:26;100092.16;;;6.86;100.00
56270;BME280;42176;43.240;27.880;2023-03-22T03:08:56;100097.44;;;6.83;100.00
56270;BME280;42176;43.240;27.880;2023-03-22T03:11:23;100089.84;;;6.36;100.00
56270;BME280;42176;43.240;27.880;2023-03-22T03:13:49;100095.84;;;6.59;100.00
56270;BME280;42176;43.240;27.880;2023-03-22T03:16:20;100096.53;;;6.85;100.00
56270;BME280;42176;43.240;27.880;2023-03-22T03:19:24;100107.41;;;6.36;100.00
56270;BME280;42176;43.240;27.880;2023-03-22T03:24:34;100122.09;;;6.76;100.00
56270;BME280;42176;43.240;27.880;2023-03-22T03:27:08;100122.84;;;6.92;100.00
56270;BME280;42176;43.240;27.880;2023-03-22T03:29:53;100103.84;;;6.45;100.00
56270;BME280;42176;43.240;27.880;2023-03-22T03:32:26;100133.53;;;6.70;100.00
56270;BME280;42176;43.240;27.880;2023-03-22T03:35:11;100135.16;;;6.86;100.00
56270;BME280;42176;43.240;27.880;2023-03-22T03:38:10;100117.88;;;6.42;100.00
56270;BME280;42176;43.240;27.880;2023-03-22T03:40:41;100123.03;;;6.65;100.00
56270;BME280;42176;43.240;27.880;2023-03-22T03:43:08;100142.84;;;7.18;100.00
56270;BME280;42176;43.240;27.880;2023-03-22T03:45:35;100125.88;;;6.25;100.00
56270;BME280;42176;43.240;27.880;2023-03-22T03:48:05;100123.13;;;6.48;100.00
56270;BME280;42176;43.240;27.880;2023-03-22T03:50:32;100126.50;;;6.70;100.00
56270;BME280;42176;43.240;27.880;2023-03-22T03:52:58;100143.81;;;7.10;100.00
56270;BME280;42176;43.240;27.880;2023-03-22T03:55:25;100118.84;;;6.30;100.00
56270;BME280;42176;43.240;27.880;2023-03-22T03:57:51;100131.88;;;6.53;100.00
56270;BME280;42176;43.240;27.880;2023-03-22T04:00:18;100143.16;;;6.74;100.00
56270;BME280;42176;43.240;27.880;2023-03-22T04:02:43;100156.22;;;6.93;100.00
56270;BME280;42176;43.240;27.880;2023-03-22T04:05:10;100152.59;;;7.09;100.00
56270;BME280;42176;43.240;27.880;2023-03-22T04:07:36;100156.00;;;7.21;100.00
56270;BME280;42176;43.240;27.880;2023-03-22T04:10:02;100157.66;;;7.34;100.00
56270;BME280;42176;43.240;27.880;2023-03-22T04:12:28;100158.41;;;7.52;100.00
56270;BME280;42176;43.240;27.880;2023-03-22T04:14:53;100160.91;;;7.64;100.00
56270;BME280;42176;43.240;27.880;2023-03-22T04:17:20;100138.03;;;7.66;100.00
56270;BME280;42176;43.240;27.880;2023-03-22T04:19:46;100141.47;;;7.77;100.00
56270;BME280;42176;43.240;27.880;2023-03-22T04:22:11;100127.28;;;7.85;100.00
56270;BME280;42176;43.240;27.880;2023-03-22T04:24:41;100110.50;;;7.92;100.00
56270;BME280;42176;43.240;27.880;2023-03-22T04:27:07;100106.88;;;8.01;100.00
56270;BME280;42176;43.240;27.880;2023-03-22T04:29:33;100089.13;;;8.12;100.00
56270;BME280;42176;43.240;27.880;2023-03-22T04:32:03;100082.28;;;7.14;100.00
56270;BME280;42176;43.240;27.880;2023-03-22T04:34:28;100082.53;;;6.80;100.00
56270;BME280;42176;43.240;27.880;2023-03-22T04:36:54;100097.34;;;6.97;100.00
56270;BME280;42176;43.240;27.880;2023-03-22T04:39:19;100116.31;;;7.39;100.00
56270;BME280;42176;43.240;27.880;2023-03-22T04:41:45;100109.81;;;6.72;100.00
56270;BME280;42176;43.240;27.880;2023-03-22T04:44:11;100107.94;;;6.89;100.00
56270;BME280;42176;43.240;27.880;2023-03-22T04:46:36;100112.19;;;7.07;100.00
56270;BME280;42176;43.240;27.880;2023-03-22T04:49:03;100117.31;;;7.26;100.00
56270;BME280;42176;43.240;27.880;2023-03-22T04:51:29;100131.22;;;7.43;100.00
56270;BME280;42176;43.240;27.880;2023-03-22T04:53:56;100103.38;;;7.11;100.00
56270;BME280;42176;43.240;27.880;2023-03-22T04:56:23;100098.44;;;6.65;100.00
56270;BME280;42176;43.240;27.880;2023-03-22T04:58:49;100114.09;;;6.86;100.00
56270;BME280;42176;43.240;27.880;2023-03-22T05:01:16;100110.41;;;7.09;100.00
56270;BME280;42176;43.240;27.880;2023-03-22T05:03:43;100117.06;;;6.37;100.00
56270;BME280;42176;43.240;27.880;2023-03-22T05:06:12;100125.63;;;6.68;100.00
56270;BME280;42176;43.240;27.880;2023-03-22T05:08:38;100105.38;;;6.78;100.00
56270;BME280;42176;43.240;27.880;2023-03-22T05:11:07;100120.13;;;7.01;100.00
56270;BME280;42176;43.240;27.880;2023-03-22T05:13:34;100136.69;;;7.22;100.00
56270;BME280;42176;43.240;27.880;2023-03-22T05:16:04;100124.19;;;7.42;100.00
56270;BME280;42176;43.240;27.880;2023-03-22T05:18:29;100115.31;;;7.53;100.00
56270;BME280;42176;43.240;27.880;2023-03-22T05:20:58;100115.22;;;7.62;100.00
56270;BME280;42176;43.240;27.880;2023-03-22T05:23:26;100108.06;;;7.73;100.00
56270;BME280;42176;43.240;27.880;2023-03-22T05:25:53;100091.25;;;7.82;100.00
56270;BME280;42176;43.240;27.880;2023-03-22T05:28:20;100097.25;;;7.95;100.00
56270;BME280;42176;43.240;27.880;2023-03-22T05:30:47;100089.75;;;7.56;100.00
56270;BME280;42176;43.240;27.880;2023-03-22T05:33:13;100089.63;;;6.74;100.00
56270;BME280;42176;43.240;27.880;2023-03-22T05:35:43;100078.13;;;6.82;100.00
56270;BME280;42176;43.240;27.880;2023-03-22T05:38:09;100112.09;;;7.20;100.00
56270;BME280;42176;43.240;27.880;2023-03-22T05:40:34;100120.69;;;7.43;100.00
56270;BME280;42176;43.240;27.880;2023-03-22T05:43:00;100106.47;;;7.57;100.00
56270;BME280;42176;43.240;27.880;2023-03-22T05:45:26;100102.03;;;7.60;100.00
56270;BME280;42176;43.240;27.880;2023-03-22T05:47:51;100108.13;;;7.67;100.00
56270;BME280;42176;43.240;27.880;2023-03-22T05:50:20;100107.19;;;7.73;100.00
56270;BME280;42176;43.240;27.880;2023-03-22T05:55:31;100099.13;;;7.87;100.00
56270;BME280;42176;43.240;27.880;2023-03-22T05:57:57;100079.91;;;7.75;100.00
56270;BME280;42176;43.240;27.880;2023-03-22T06:00:23;100093.53;;;7.30;100.00
56270;BME280;42176;43.240;27.880;2023-03-22T06:02:50;100094.88;;;6.72;100.00
56270;BME280;42176;43.240;27.880;2023-03-22T06:05:20;100107.81;;;7.05;100.00
56270;BME280;42176;43.240;27.880;2023-03-22T06:07:48;100094.50;;;7.19;100.00
56270;BME280;42176;43.240;27.880;2023-03-22T06:10:16;100107.88;;;6.95;100.00
56270;BME280;42176;43.240;27.880;2023-03-22T06:12:45;100099.16;;;6.87;100.00
56270;BME280;42176;43.240;27.880;2023-03-22T06:15:11;100120.00;;;7.20;100.00
56270;BME280;42176;43.240;27.880;2023-03-22T06:17:36;100115.47;;;7.34;100.00
56270;BME280;42176;43.240;27.880;2023-03-22T06:20:03;100125.94;;;7.46;100.00
56270;BME280;42176;43.240;27.880;2023-03-22T06:22:34;100105.63;;;7.52;100.00
56270;BME280;42176;43.240;27.880;2023-03-22T06:25:00;100115.22;;;7.60;100.00
56270;BME280;42176;43.240;27.880;2023-03-22T06:27:26;100109.88;;;7.68;100.00
56270;BME280;42176;43.240;27.880;2023-03-22T06:29:54;100115.94;;;7.78;100.00
56270;BME280;42176;43.240;27.880;2023-03-22T06:32:20;100097.38;;;6.94;100.00
56270;BME280;42176;43.240;27.880;2023-03-22T06:34:51;100122.97;;;6.75;100.00
56270;BME280;42176;43.240;27.880;2023-03-22T06:37:17;100120.97;;;7.09;100.00
56270;BME280;42176;43.240;27.880;2023-03-22T06:39:43;100130.59;;;7.13;100.00
56270;BME280;42176;43.240;27.880;2023-03-22T06:42:08;100140.13;;;7.30;100.00
56270;BME280;42176;43.240;27.880;2023-03-22T06:44:34;100141.84;;;7.34;100.00
56270;BME280;42176;43.240;27.880;2023-03-22T06:47:00;100137.00;;;6.75;100.00
56270;BME280;42176;43.240;27.880;2023-03-22T06:49:26;100145.56;;;7.11;100.00
56270;BME280;42176;43.240;27.880;2023-03-22T06:51:52;100147.97;;;7.36;100.00
56270;BME280;42176;43.240;27.880;2023-03-22T06:54:17;100149.78;;;7.32;100.00
56270;BME280;42176;43.240;27.880;2023-03-22T06:56:43;100149.22;;;6.85;100.00
56270;BME280;42176;43.240;27.880;2023-03-22T06:59:08;100156.09;;;7.11;100.00
56270;BME280;42176;43.240;27.880;2023-03-22T07:01:34;100161.25;;;7.27;100.00
56270;BME280;42176;43.240;27.880;2023-03-22T07:04:00;100175.09;;;7.54;100.00
56270;BME280;42176;43.240;27.880;2023-03-22T07:06:25;100162.25;;;7.10;100.00
56270;BME280;42176;43.240;27.880;2023-03-22T07:08:51;100161.94;;;7.49;100.00
56270;BME280;42176;43.240;27.880;2023-03-22T07:11:20;100168.66;;;7.83;100.00
56270;BME280;42176;43.240;27.880;2023-03-22T07:13:45;100173.28;;;7.59;100.00
56270;BME280;42176;43.240;27.880;2023-03-22T07:16:10;100172.59;;;7.37;100.00
56270;BME280;42176;43.240;27.880;2023-03-22T07:18:36;100166.25;;;7.61;100.00
56270;BME280;42176;43.240;27.880;2023-03-22T07:21:02;100164.22;;;7.88;100.00
56270;BME280;42176;43.240;27.880;2023-03-22T07:23:30;100160.53;;;8.01;100.00
56270;BME280;42176;43.240;27.880;2023-03-22T07:25:56;100162.88;;;8.28;100.00
56270;BME280;42176;43.240;27.880;2023-03-22T07:28:23;100149.47;;;8.48;100.00
56270;BME280;42176;43.240;27.880;2023-03-22T07:30:48;100150.06;;;8.67;100.00
56270;BME280;42176;43.240;27.880;2023-03-22T07:33:14;100155.06;;;8.89;100.00
56270;BME280;42176;43.240;27.880;2023-03-22T07:35:45;100143.31;;;9.07;100.00
56270;BME280;42176;43.240;27.880;2023-03-22T07:38:11;100162.44;;;8.65;100.00
56270;BME280;42176;43.240;27.880;2023-03-22T07:40:37;100152.72;;;7.93;100.00
56270;BME280;42176;43.240;27.880;2023-03-22T07:43:03;100156.81;;;8.21;100.00
56270;BME280;42176;43.240;27.880;2023-03-22T07:45:28;100157.28;;;8.56;100.00
56270;BME280;42176;43.240;27.880;2023-03-22T07:47:53;100168.38;;;8.81;100.00
56270;BME280;42176;43.240;27.880;2023-03-22T07:50:19;100160.28;;;8.93;100.00
56270;BME280;42176;43.240;27.880;2023-03-22T07:52:45;100147.97;;;8.25;100.00
56270;BME280;42176;43.240;27.880;2023-03-22T07:55:12;100160.91;;;7.64;100.00
56270;BME280;42176;43.240;27.880;2023-03-22T07:57:38;100170.94;;;8.17;100.00
56270;BME280;42176;43.240;27.880;2023-03-22T08:00:06;100172.34;;;8.46;100.00
56270;BME280;42176;43.240;27.880;2023-03-22T08:02:32;100170.25;;;8.73;100.00
56270;BME280;42176;43.240;27.880;2023-03-22T08:04:57;100161.91;;;9.02;100.00
56270;BME280;42176;43.240;27.880;2023-03-22T08:07:23;100152.06;;;9.12;100.00
56270;BME280;42176;43.240;27.880;2023-03-22T08:09:49;100156.88;;;8.15;100.00
56270;BME280;42176;43.240;27.880;2023-03-22T08:12:18;100177.84;;;8.27;100.00
56270;BME280;42176;43.240;27.880;2023-03-22T08:14:43;100194.31;;;8.52;100.00
56270;BME280;42176;43.240;27.880;2023-03-22T08:17:18;100187.94;;;8.69;100.00
56270;BME280;42176;43.240;27.880;2023-03-22T08:19:44;100201.13;;;7.91;100.00
56270;BME280;42176;43.240;27.880;2023-03-22T08:22:10;100186.91;;;8.04;100.00
56270;BME280;42176;43.240;27.880;2023-03-22T08:24:36;100213.84;;;8.37;100.00
56270;BME280;42176;43.240;27.880;2023-03-22T08:27:02;100176.25;;;8.14;100.00
56270;BME280;42176;43.240;27.880;2023-03-22T08:29:28;100197.00;;;7.64;100.00
56270;BME280;42176;43.240;27.880;2023-03-22T08:31:53;100196.72;;;7.93;100.00
56270;BME280;42176;43.240;27.880;2023-03-22T08:34:20;100205.19;;;8.21;100.00
56270;BME280;42176;43.240;27.880;2023-03-22T08:36:46;100196.28;;;7.44;100.00
56270;BME280;42176;43.240;27.880;2023-03-22T08:39:12;100196.03;;;7.72;100.00
56270;BME280;42176;43.240;27.880;2023-03-22T08:41:40;100197.44;;;8.06;100.00
56270;BME280;42176;43.240;27.880;2023-03-22T08:44:06;100163.69;;;7.50;100.00
56270;BME280;42176;43.240;27.880;2023-03-22T08:46:31;100200.56;;;7.56;100.00
56270;BME280;42176;43.240;27.880;2023-03-22T08:48:57;100211.59;;;8.00;100.00
56270;BME280;42176;43.240;27.880;2023-03-22T08:51:24;100220.00;;;8.36;100.00
56270;BME280;42176;43.240;27.880;2023-03-22T08:53:50;100213.50;;;8.67;100.00
56270;BME280;42176;43.240;27.880;2023-03-22T08:56:19;100205.03;;;9.06;100.00
56270;BME280;42176;43.240;27.880;2023-03-22T08:58:46;100212.38;;;8.10;100.00
56270;BME280;42176;43.240;27.880;2023-03-22T09:01:13;100218.50;;;8.14;100.00
56270;BME280;42176;43.240;27.880;2023-03-22T09:03:39;100238.34;;;8.52;100.00
56270;BME280;42176;43.240;27.880;2023-03-22T09:06:05;100239.72;;;8.84;100.00
56270;BME280;42176;43.240;27.880;2023-03-22T09:08:32;100236.69;;;9.12;100.00
56270;BME280;42176;43.240;27.880;2023-03-22T09:10:57;100218.69;;;9.36;100.00
56270;BME280;42176;43.240;27.880;2023-03-22T09:13:23;100217.50;;;8.97;100.00
56270;BME280;42176;43.240;27.880;2023-03-22T09:15:49;100202.22;;;7.68;100.00
56270;BME280;42176;43.240;27.880;2023-03-22T09:18:16;100233.56;;;8.05;100.00
56270;BME280;42176;43.240;27.880;2023-03-22T09:20:43;100239.59;;;8.17;100.00
56270;BME280;42176;43.240;27.880;2023-03-22T09:23:12;100238.47;;;8.40;100.00
56270;BME280;42176;43.240;27.880;2023-03-22T09:25:42;100234.09;;;8.38;100.00
56270;BME280;42176;43.240;27.880;2023-03-22T09:28:08;100226.13;;;8.40;100.00
56270;BME280;42176;43.240;27.880;2023-03-22T09:30:34;100234.88;;;8.45;100.00
56270;BME280;42176;43.240;27.880;2023-03-22T09:33:01;100258.63;;;8.47;100.00
56270;BME280;42176;43.240;27.880;2023-03-22T09:35:27;100262.09;;;8.55;100.00
56270;BME280;42176;43.240;27.880;2023-03-22T09:37:52;100268.31;;;8.49;100.00
56270;BME280;42176;43.240;27.880;2023-03-22T09:40:26;100260.34;;;7.57;100.00
56270;BME280;42176;43.240;27.880;2023-03-22T09:42:54;100261.56;;;7.02;100.00
56270;BME280;42176;43.240;27.880;2023-03-22T09:45:27;100280.69;;;7.41;100.00
56270;BME280;42176;43.240;27.880;2023-03-22T09:47:59;100291.94;;;7.67;100.00
56270;BME280;42176;43.240;27.880;2023-03-22T09:50:31;100308.63;;;7.73;100.00
56270;BME280;42176;43.240;27.880;2023-03-22T09:52:58;100308.94;;;7.24;100.00
56270;BME280;42176;43.240;27.880;2023-03-22T09:55:38;100296.03;;;6.59;100.00
56270;BME280;42176;43.240;27.880;2023-03-22T09:58:26;100309.94;;;6.98;100.00
56270;BME280;42176;43.240;27.880;2023-03-22T10:00:59;100330.94;;;7.21;100.00
56270;BME280;42176;43.240;27.880;2023-03-22T10:06:04;100348.50;;;7.19;100.00
56270;BME280;42176;43.240;27.880;2023-03-22T10:11:40;100349.56;;;6.58;100.00
56270;BME280;42176;43.240;27.880;2023-03-22T10:17:01;100345.16;;;6.77;100.00
56270;BME280;42176;43.240;27.880;2023-03-22T10:19:35;100343.38;;;6.77;100.00
56270;BME280;42176;43.240;27.880;2023-03-22T10:22:15;100328.47;;;6.73;100.00
56270;BME280;42176;43.240;27.880;2023-03-22T10:24:44;100348.75;;;6.32;100.00
56270;BME280;42176;43.240;27.880;2023-03-22T10:27:15;100357.47;;;6.64;100.00
56270;BME280;42176;43.240;27.880;2023-03-22T10:29:45;100365.31;;;6.85;100.00
56270;BME280;42176;43.240;27.880;2023-03-22T10:32:16;100372.25;;;7.14;100.00
56270;BME280;42176;43.240;27.880;2023-03-22T10:34:42;100367.91;;;6.99;100.00
56270;BME280;42176;43.240;27.880;2023-03-22T10:37:15;100353.97;;;6.62;100.00
56270;BME280;42176;43.240;27.880;2023-03-22T10:39:47;100349.44;;;7.01;100.00
56270;BME280;42176;43.240;27.880;2023-03-22T10:42:18;100356.38;;;7.27;100.00
56270;BME280;42176;43.240;27.880;2023-03-22T10:44:53;100372.13;;;7.45;100.00
56270;BME280;42176;43.240;27.880;2023-03-22T10:47:34;100346.03;;;6.74;100.00
56270;BME280;42176;43.240;27.880;2023-03-22T10:50:04;100346.78;;;7.09;100.00
56270;BME280;42176;43.240;27.880;2023-03-22T10:55:24;100351.13;;;7.21;100.00
56270;BME280;42176;43.240;27.880;2023-03-22T10:57:58;100354.66;;;7.16;100.00
56270;BME280;42176;43.240;27.880;2023-03-22T11:00:24;100358.94;;;7.41;100.00
56270;BME280;42176;43.240;27.880;2023-03-22T11:02:59;100350.19;;;7.39;100.00
56270;BME280;42176;43.240;27.880;2023-03-22T11:05:28;100351.84;;;7.51;100.00
56270;BME280;42176;43.240;27.880;2023-03-22T11:07:55;100330.16;;;6.90;100.00
56270;BME280;42176;43.240;27.880;2023-03-22T11:10:40;100319.72;;;6.55;100.00
56270;BME280;42176;43.240;27.880;2023-03-22T11:15:33;100324.88;;;6.93;100.00
56270;BME280;42176;43.240;27.880;2023-03-22T11:18:03;100334.41;;;7.28;100.00
56270;BME280;42176;43.240;27.880;2023-03-22T11:20:31;100321.03;;;7.56;100.00
56270;BME280;42176;43.240;27.880;2023-03-22T11:23:00;100298.66;;;6.68;100.00
56270;BME280;42176;43.240;27.880;2023-03-22T11:25:33;100304.72;;;6.81;100.00
56270;BME280;42176;43.240;27.880;2023-03-22T11:28:36;100307.25;;;7.04;100.00
56270;BME280;42176;43.240;27.880;2023-03-22T11:31:16;100303.88;;;6.71;100.00
56270;BME280;42176;43.240;27.880;2023-03-22T11:33:56;100303.81;;;6.93;100.00
56270;BME280;42176;43.240;27.880;2023-03-22T11:36:23;100308.09;;;7.15;100.00
56270;BME280;42176;43.240;27.880;2023-03-22T11:38:56;100321.03;;;7.59;100.00
56270;BME280;42176;43.240;27.880;2023-03-22T11:41:28;100295.94;;;6.85;100.00
56270;BME280;42176;43.240;27.880;2023-03-22T11:43:57;100288.00;;;6.86;100.00
56270;BME280;42176;43.240;27.880;2023-03-22T11:46:29;100286.97;;;7.19;100.00
56270;BME280;42176;43.240;27.880;2023-03-22T11:48:57;100298.28;;;7.39;100.00
56270;BME280;42176;43.240;27.880;2023-03-22T11:51:29;100301.59;;;7.69;100.00
56270;BME280;42176;43.240;27.880;2023-03-22T11:56:54;100265.88;;;7.20;100.00
56270;BME280;42176;43.240;27.880;2023-03-22T11:59:25;100271.91;;;7.39;100.00
56270;BME280;42176;43.240;27.880;2023-03-22T12:04:28;100251.09;;;6.90;100.00
56270;BME280;42176;43.240;27.880;2023-03-22T12:06:58;100247.50;;;7.08;100.00
56270;BME280;42176;43.240;27.880;2023-03-22T12:10:04;100248.28;;;7.27;100.00
56270;BME280;42176;43.240;27.880;2023-03-22T12:12:35;100244.41;;;7.74;100.00
56270;BME280;42176;43.240;27.880;2023-03-22T12:15:21;100236.19;;;6.89;100.00
56270;BME280;42176;43.240;27.880;2023-03-22T12:17:55;100232.53;;;7.10;100.00
56270;BME280;42176;43.240;27.880;2023-03-22T12:20:46;100242.03;;;7.40;100.00
56270;BME280;42176;43.240;27.880;2023-03-22T12:23:18;100240.94;;;7.66;100.00
56270;BME280;42176;43.240;27.880;2023-03-22T12:31:15;100238.59;;;7.26;100.00
56270;BME280;42176;43.240;27.880;2023-03-22T12:33:47;100252.38;;;7.65;100.00
56270;BME280;42176;43.240;27.880;2023-03-22T12:36:16;100237.25;;;7.86;100.00
56270;BME280;42176;43.240;27.880;2023-03-22T12:38:48;100231.09;;;7.84;100.00
56270;BME280;42176;43.240;27.880;2023-03-22T12:41:32;100222.75;;;7.30;100.00
56270;BME280;42176;43.240;27.880;2023-03-22T12:44:24;100228.63;;;7.65;100.00
56270;BME280;42176;43.240;27.880;2023-03-22T12:47:00;100226.53;;;8.04;100.00
56270;BME280;42176;43.240;27.880;2023-03-22T12:49:55;100227.00;;;8.39;100.00
56270;BME280;42176;43.240;27.880;2023-03-22T12:52:30;100224.88;;;8.72;100.00
56270;BME280;42176;43.240;27.880;2023-03-22T12:54:59;100220.28;;;8.87;100.00
56270;BME280;42176;43.240;27.880;2023-03-22T12:57:25;100207.19;;;8.79;100.00
56270;BME280;42176;43.240;27.880;2023-03-22T12:59:54;100200.66;;;8.34;100.00
56270;BME280;42176;43.240;27.880;2023-03-22T13:02:31;100194.59;;;7.34;100.00
56270;BME280;42176;43.240;27.880;2023-03-22T13:05:00;100200.44;;;7.70;100.00
56270;BME280;42176;43.240;27.880;2023-03-22T13:09:56;100218.09;;;8.54;100.00
56270;BME280;42176;43.240;27.880;2023-03-22T13:15:55;100190.06;;;8.37;100.00
56270;BME280;42176;43.240;27.880;2023-03-22T13:17:48;100174.41;;;7.30;100.00
56270;BME280;42176;43.240;27.880;2023-03-22T13:28:02;100188.13;;;8.53;100.00
56270;BME280;42176;43.240;27.880;2023-03-22T13:33:12;100181.06;;;7.73;100.00
56270;BME280;42176;43.240;27.880;2023-03-22T13:35:45;100188.56;;;8.15;100.00
56270;BME280;42176;43.240;27.880;2023-03-22T13:38:19;100188.06;;;8.58;100.00
56270;BME280;42176;43.240;27.880;2023-03-22T13:40:59;100176.84;;;7.52;100.00
56270;BME280;42176;43.240;27.880;2023-03-22T13:54:33;100181.78;;;7.89;100.00
56270;BME280;42176;43.240;27.880;2023-03-22T13:57:00;100181.38;;;8.26;100.00
56270;BME280;42176;43.240;27.880;2023-03-22T14:01:56;100169.81;;;7.54;100.00
56270;BME280;42176;43.240;27.880;2023-03-22T14:04:43;100187.09;;;7.86;100.00
56270;BME280;42176;43.240;27.880;2023-03-22T14:10:40;100200.31;;;7.84;100.00
56270;BME280;42176;43.240;27.880;2023-03-22T14:13:17;100203.50;;;8.17;100.00
56270;BME280;42176;43.240;27.880;2023-03-22T14:15:50;100197.03;;;8.42;100.00